Time;durP1;ratioP1;P1;durP2;ratioP2;P2;SDS_P1;SDS_P2;PMS_P1;PMS_P2;Temp;Humidity;BMP_temperature;BMP_pressure;BME280_temperature;BME280_humidity;BME280_pressure;Samples;Min_cycle;Max_cycle;Signal;HPM_P1;HPM_P2
2023/09/10 00:01:48;;;;;;;19.83;13.90;;;;;;;20.88;67.24;100534.06;10235615;28;20054;-78
2023/09/10 00:06:51;;;;;;;18.85;13.88;;;;;;;20.85;67.51;100532.53;10237883;28;20130;-78
2023/09/10 00:11:55;;;;;;;17.70;14.10;;;;;;;20.72;67.96;100537.81;10249214;28;20095;-78
2023/09/10 00:16:58;;;;;;;20.55;13.43;;;;;;;20.46;68.93;100538.22;10233754;28;20672;-77
2023/09/10 00:22:01;;;;;;;18.10;14.25;;;;;;;19.84;71.49;100545.53;10233167;28;20047;-78
2023/09/10 00:27:06;;;;;;;19.05;13.82;;;;;;;20.09;71.15;100535.28;10234373;28;20051;-79
2023/09/10 00:32:09;;;;;;;17.20;14.52;;;;;;;20.29;70.36;100546.53;10248882;28;20078;-79
2023/09/10 00:37:12;;;;;;;19.83;14.93;;;;;;;20.08;70.42;100549.97;10230107;28;21227;-78
2023/09/10 00:42:17;;;;;;;21.30;13.75;;;;;;;20.05;70.71;100547.63;10233834;28;20084;-77
2023/09/10 00:47:21;;;;;;;17.85;13.95;;;;;;;20.18;69.81;100543.41;10250381;28;20051;-78
2023/09/10 00:52:25;;;;;;;18.48;13.70;;;;;;;20.26;69.74;100538.72;10251154;28;20051;-79
2023/09/10 00:57:29;;;;;;;23.98;14.52;;;;;;;20.21;69.63;100543.03;10242913;28;20119;-79
2023/09/10 01:02:32;;;;;;;22.88;16.58;;;;;;;20.15;70.08;100541.88;10238983;28;20529;-79
2023/09/10 01:07:36;;;;;;;16.48;13.82;;;;;;;20.26;68.74;100549.63;10240268;28;20047;-79
2023/09/10 01:12:46;;;;;;;16.55;14.20;;;;;;;20.15;69.28;100549.22;10234955;28;20110;-78
2023/09/10 01:17:58;;;;;;;24.95;16.88;;;;;;;20.08;69.99;100555.44;10229474;28;21200;-78
2023/09/10 01:23:08;;;;;;;24.00;17.43;;;;;;;20.15;69.63;100550.06;10247958;28;20062;-78
2023/09/10 01:28:13;;;;;;;21.48;17.75;;;;;;;20.07;69.69;100547.41;10238249;28;20086;-77
2023/09/10 01:33:22;;;;;;;24.48;18.35;;;;;;;19.92;70.18;100552.81;10232893;28;20050;-77
2023/09/10 01:38:29;;;;;;;22.50;17.42;;;;;;;19.68;72.31;100562.84;10247415;28;20061;-78
2023/09/10 01:43:35;;;;;;;24.15;17.60;;;;;;;19.74;71.17;100550.38;10236452;28;20501;-77
2023/09/10 01:48:38;;;;;;;23.45;17.60;;;;;;;19.76;70.52;100556.50;10232133;28;20047;-78
2023/09/10 01:53:41;;;;;;;18.10;16.08;;;;;;;19.68;69.91;100557.41;10231979;28;20055;-77
2023/09/10 01:58:45;;;;;;;21.33;15.98;;;;;;;19.29;70.68;100556.56;10249320;28;21262;-77
2023/09/10 02:03:48;;;;;;;19.30;16.65;;;;;;;19.22;71.49;100548.25;10228642;28;20043;-76
2023/09/10 02:08:52;;;;;;;21.60;16.13;;;;;;;19.38;71.00;100555.50;10235812;28;20586;-78
2023/09/10 02:13:56;;;;;;;22.27;16.13;;;;;;;19.39;70.46;100559.91;10233598;28;20047;-79
2023/09/10 02:18:59;;;;;;;18.75;15.50;;;;;;;19.41;69.94;100566.88;10243064;28;20623;-79
2023/09/10 02:24:02;;;;;;;18.80;15.10;;;;;;;19.35;70.39;100575.78;10237067;28;20059;-77
2023/09/10 02:29:06;;;;;;;21.98;15.23;;;;;;;19.33;70.22;100572.38;10225601;28;20876;-79
2023/09/10 02:34:10;;;;;;;18.25;16.20;;;;;;;19.31;70.70;100569.00;10249728;28;20173;-79
2023/09/10 02:39:12;;;;;;;19.55;15.75;;;;;;;19.31;70.50;100570.84;10235809;28;20058;-79
2023/09/10 02:44:17;;;;;;;20.50;15.15;;;;;;;19.28;70.18;100579.38;10236165;28;20060;-78
2023/09/10 02:49:20;;;;;;;23.70;14.90;;;;;;;19.27;69.87;100573.09;10237517;28;21328;-79
2023/09/10 02:54:23;;;;;;;22.52;15.77;;;;;;;19.16;70.05;100568.03;10269058;28;20043;-78
2023/09/10 02:59:28;;;;;;;23.83;17.23;;;;;;;19.01;71.35;100584.25;10281774;28;20062;-77
2023/09/10 03:04:31;;;;;;;22.73;17.45;;;;;;;18.95;72.09;100574.91;10258564;28;20102;-79
2023/09/10 03:09:34;;;;;;;24.10;17.60;;;;;;;18.96;71.95;100578.47;10232719;28;20051;-79
2023/09/10 03:14:39;;;;;;;19.58;16.77;;;;;;;18.96;71.61;100573.88;10252152;28;20214;-77
2023/09/10 03:19:43;;;;;;;20.25;16.70;;;;;;;18.87;71.78;100583.09;10269765;28;20051;-77
2023/09/10 03:24:47;;;;;;;23.00;18.55;;;;;;;18.83;71.75;100579.00;10243335;28;20135;-78
2023/09/10 03:29:51;;;;;;;21.30;19.05;;;;;;;18.51;73.33;100586.19;10256612;28;20051;-78
2023/09/10 03:34:54;;;;;;;27.00;20.45;;;;;;;18.63;73.44;100577.69;10241302;28;20053;-78
2023/09/10 03:39:57;;;;;;;18.60;16.60;;;;;;;18.67;72.80;100568.13;10255656;28;20885;-78
2023/09/10 03:45:02;;;;;;;20.83;16.73;;;;;;;18.73;71.86;100572.88;10250677;28;20050;-77
2023/09/10 03:50:06;;;;;;;19.08;16.98;;;;;;;18.66;71.55;100571.88;10239242;28;20082;-77
2023/09/10 03:55:11;;;;;;;19.00;16.60;;;;;;;18.64;71.53;100568.47;10252773;28;20062;-78
2023/09/10 04:00:16;;;;;;;19.52;17.27;;;;;;;18.60;71.27;100578.03;10236882;28;20051;-78
2023/09/10 04:05:19;;;;;;;26.20;19.48;;;;;;;18.61;71.44;100572.41;10246122;28;20082;-78
2023/09/10 04:10:22;;;;;;;23.38;17.88;;;;;;;18.55;71.22;100575.81;10244116;28;20062;-78
2023/09/10 04:15:26;;;;;;;22.55;19.10;;;;;;;18.42;72.32;100586.34;10241979;28;20058;-77
2023/09/10 04:20:29;;;;;;;24.08;20.42;;;;;;;18.34;72.95;100590.75;10238606;28;20042;-77
2023/09/10 04:25:32;;;;;;;30.00;22.50;;;;;;;18.18;73.71;100589.91;10235209;28;20054;-76
2023/09/10 04:30:39;;;;;;;25.95;21.27;;;;;;;17.91;74.81;100594.63;10241578;28;20058;-78
2023/09/10 04:35:48;;;;;;;23.05;20.63;;;;;;;17.96;74.64;100589.53;10238898;28;20043;-77
2023/09/10 04:40:56;;;;;;;23.92;20.15;;;;;;;17.95;74.53;100595.97;10247052;28;20515;-78
2023/09/10 04:46:00;;;;;;;20.08;17.95;;;;;;;18.10;73.38;100607.06;10249299;28;20054;-77
2023/09/10 04:51:04;;;;;;;21.48;18.30;;;;;;;18.17;72.95;100610.81;10236631;28;20181;-77
2023/09/10 04:56:07;;;;;;;21.05;18.05;;;;;;;18.20;72.12;100617.78;10252082;28;20158;-77
2023/09/10 05:01:11;;;;;;;23.33;19.08;;;;;;;18.24;71.99;100616.41;10252579;28;20047;-76
2023/09/10 05:06:14;;;;;;;29.02;18.27;;;;;;;18.25;71.59;100626.28;10241987;28;20047;-79
2023/09/10 05:11:19;;;;;;;21.10;18.50;;;;;;;18.25;71.31;100638.00;10257705;28;20050;-78
2023/09/10 05:16:23;;;;;;;24.85;19.45;;;;;;;18.16;71.37;100632.75;10247494;28;20050;-78
2023/09/10 05:21:26;;;;;;;25.30;18.50;;;;;;;18.05;72.14;100629.34;10244851;28;20039;-78
2023/09/10 05:26:29;;;;;;;19.05;16.80;;;;;;;18.21;71.60;100623.06;10249216;28;20057;-77
2023/09/10 05:31:34;;;;;;;20.73;17.42;;;;;;;18.30;71.32;100626.66;10248269;28;20054;-77
2023/09/10 05:36:37;;;;;;;22.90;19.00;;;;;;;18.24;71.74;100627.28;10249957;28;20050;-78
2023/09/10 05:41:41;;;;;;;26.00;19.48;;;;;;;18.23;72.41;100634.59;10259000;28;20047;-78
2023/09/10 05:46:46;;;;;;;20.83;17.45;;;;;;;18.39;72.17;100635.66;10247357;28;20748;-78
2023/09/10 05:51:49;;;;;;;24.13;17.63;;;;;;;18.53;71.61;100638.53;10260755;28;20125;-78
2023/09/10 05:56:52;;;;;;;27.08;19.55;;;;;;;18.55;71.93;100633.78;10247885;28;20057;-78
2023/09/10 06:01:56;;;;;;;21.33;17.42;;;;;;;18.63;72.58;100632.94;10241694;28;20131;-78
2023/09/10 06:07:03;;;;;;;25.50;19.98;;;;;;;18.31;73.07;100629.19;10245287;28;20058;-78
2023/09/10 06:12:07;;;;;;;24.35;18.70;;;;;;;18.22;73.31;100632.91;10261770;28;20047;-78
2023/09/10 06:17:11;;;;;;;24.40;19.38;;;;;;;18.13;74.19;100642.94;10263098;28;20051;-79
2023/09/10 06:22:15;;;;;;;26.00;18.92;;;;;;;18.16;74.36;100644.47;10244604;28;20415;-77
2023/09/10 06:27:18;;;;;;;22.42;18.13;;;;;;;18.58;73.52;100646.19;10247521;28;20043;-78
2023/09/10 06:32:22;;;;;;;22.92;18.08;;;;;;;19.21;71.67;100650.03;10250821;28;20063;-78
2023/09/10 06:37:26;;;;;;;22.98;17.48;;;;;;;19.65;70.02;100657.75;10255189;28;20067;-79
2023/09/10 06:42:29;;;;;;;23.67;20.05;;;;;;;19.56;69.88;100664.25;10239751;28;20053;-79
2023/09/10 06:47:47;;;;;;;24.02;19.67;;;;;;;19.53;70.99;100659.97;10253012;28;20474;-79
2023/09/10 06:52:50;;;;;;;28.88;21.92;;;;;;;20.01;70.32;100662.66;10248704;28;20133;-79
2023/09/10 06:57:53;;;;;;;34.17;22.55;;;;;;;20.18;69.20;100645.16;10260716;28;20125;-78
2023/09/10 07:02:58;;;;;;;23.13;18.88;;;;;;;20.38;69.66;100653.75;10261083;28;20090;-79
2023/09/10 07:08:01;;;;;;;26.65;21.55;;;;;;;20.58;68.18;100648.66;10258628;28;20055;-78
2023/09/10 07:13:06;;;;;;;32.90;27.17;;;;;;;20.89;67.76;100659.44;10249005;28;20122;-79
2023/09/10 07:18:10;;;;;;;29.13;24.55;;;;;;;20.95;67.52;100656.00;10274232;28;20106;-77
2023/09/10 07:23:13;;;;;;;36.80;26.92;;;;;;;21.15;67.90;100653.59;10276655;28;21172;-77
2023/09/10 07:28:16;;;;;;;32.28;26.88;;;;;;;21.52;66.53;100653.66;10257814;28;20055;-78
2023/09/10 07:33:21;;;;;;;36.70;29.80;;;;;;;21.94;66.19;100646.63;10262074;28;20085;-78
2023/09/10 07:38:24;;;;;;;33.15;26.70;;;;;;;22.06;64.82;100648.69;10264164;28;20060;-78
2023/09/10 07:43:27;;;;;;;28.15;23.70;;;;;;;22.30;64.60;100657.56;10268892;28;20063;-77
2023/09/10 07:48:31;;;;;;;33.58;28.00;;;;;;;22.75;63.67;100660.97;10267859;28;20039;-78
2023/09/10 07:53:34;;;;;;;32.80;27.77;;;;;;;23.08;63.41;100666.69;10268380;28;20077;-78
2023/09/10 07:58:37;;;;;;;31.25;26.95;;;;;;;23.51;62.05;100666.56;10256007;28;20047;-77
2023/09/10 08:03:42;;;;;;;33.95;26.42;;;;;;;23.97;61.00;100676.06;10239360;28;20075;-77
2023/09/10 08:08:45;;;;;;;30.30;25.48;;;;;;;23.93;59.63;100672.88;10253466;28;20153;-78
2023/09/10 08:13:48;;;;;;;30.55;24.67;;;;;;;24.47;59.15;100672.00;10251391;28;21157;-78
2023/09/10 08:18:52;;;;;;;27.92;22.27;;;;;;;25.16;57.98;100683.66;10236720;28;20110;-78
2023/09/10 08:23:55;;;;;;;25.27;22.30;;;;;;;25.23;56.66;100680.88;10244677;28;20055;-78
2023/09/10 08:28:58;;;;;;;27.08;22.95;;;;;;;25.27;56.17;100677.50;10235241;28;20507;-77
2023/09/10 08:34:02;;;;;;;31.40;24.15;;;;;;;25.27;54.93;100680.25;10256508;28;21232;-77
2023/09/10 08:39:05;;;;;;;27.70;22.35;;;;;;;25.68;54.37;100672.78;10234979;28;20099;-77
2023/09/10 08:44:11;;;;;;;24.75;20.70;;;;;;;25.67;52.44;100677.44;10248372;28;20051;-76
2023/09/10 08:49:16;;;;;;;25.27;22.70;;;;;;;26.35;51.28;100678.78;10234483;28;20057;-76
2023/09/10 08:54:19;;;;;;;26.40;20.80;;;;;;;25.84;53.10;100678.63;10234834;28;20047;-76
2023/09/10 08:59:23;;;;;;;24.35;18.00;;;;;;;26.40;50.92;100682.56;10247543;28;20043;-77
2023/09/10 09:04:28;;;;;;;23.15;19.65;;;;;;;27.04;51.05;100677.88;10234141;28;20130;-77
2023/09/10 09:09:39;;;;;;;23.75;20.65;;;;;;;27.47;48.83;100682.53;10234950;28;20050;-77
2023/09/10 09:14:43;;;;;;;24.87;19.53;;;;;;;27.73;49.06;100683.28;10233050;28;20097;-76
2023/09/10 09:19:50;;;;;;;17.67;15.43;;;;;;;27.98;48.48;100692.34;10228402;28;20619;-76
2023/09/10 09:24:53;;;;;;;23.73;20.67;;;;;;;28.00;47.82;100676.41;10228644;28;20047;-76
2023/09/10 09:29:57;;;;;;;22.40;19.63;;;;;;;28.23;47.84;100678.41;10233269;28;20055;-76
2023/09/10 09:35:02;;;;;;;23.08;19.08;;;;;;;28.19;47.97;100670.81;10227015;28;20190;-76
2023/09/10 09:40:09;;;;;;;21.65;19.17;;;;;;;28.25;47.43;100665.22;10228229;28;20176;-76
2023/09/10 09:45:12;;;;;;;22.13;19.30;;;;;;;28.80;46.83;100660.53;10229400;28;20422;-76
2023/09/10 09:50:16;;;;;;;22.23;19.83;;;;;;;28.78;46.85;100666.31;10227462;28;20042;-78
2023/09/10 09:55:19;;;;;;;20.08;18.02;;;;;;;29.18;46.19;100660.09;10231679;28;20439;-77
2023/09/10 10:00:23;;;;;;;21.50;17.45;;;;;;;29.00;46.97;100660.19;10227083;28;20042;-76
2023/09/10 10:05:29;;;;;;;22.10;16.85;;;;;;;29.04;47.15;100650.31;10225178;28;20438;-76
2023/09/10 10:10:34;;;;;;;21.02;17.10;;;;;;;29.73;45.99;100643.06;10231420;28;20062;-77
2023/09/10 10:15:37;;;;;;;25.58;18.58;;;;;;;29.67;46.55;100635.72;10228767;28;20201;-76
2023/09/10 10:20:46;;;;;;;16.95;15.02;;;;;;;29.15;46.92;100636.56;10229214;28;20152;-77
2023/09/10 10:25:49;;;;;;;26.92;17.40;;;;;;;29.66;46.93;100633.22;10226210;28;21259;-78
2023/09/10 10:30:55;;;;;;;18.40;16.60;;;;;;;30.26;45.89;100624.44;10238326;28;20455;-78
2023/09/10 10:36:15;;;;;;;15.52;13.93;;;;;;;30.71;45.46;100620.78;10233745;28;20074;-77
2023/09/10 10:41:25;;;;;;;22.17;16.63;;;;;;;30.98;42.99;100615.38;10238895;28;20051;-75
2023/09/10 10:46:29;;;;;;;17.77;15.90;;;;;;;30.87;42.99;100619.09;10239068;28;21371;-76
2023/09/10 10:51:38;;;;;;;18.92;16.42;;;;;;;31.07;43.03;100611.06;10225273;28;20102;-76
2023/09/10 10:56:59;;;;;;;16.55;14.00;;;;;;;32.07;42.29;100601.78;10223366;28;20058;-77
2023/09/10 11:02:15;;;;;;;18.75;14.02;;;;;;;33.59;39.50;100603.16;10223028;28;20686;-77
2023/09/10 11:07:19;;;;;;;18.35;13.90;;;;;;;33.70;38.19;100599.31;10235759;28;21178;-77
2023/09/10 11:12:22;;;;;;;19.48;12.70;;;;;;;34.14;37.17;100598.88;10240642;28;20043;-77
2023/09/10 11:17:29;;;;;;;17.05;11.52;;;;;;;33.58;37.34;100599.53;10233277;28;21004;-76
2023/09/10 11:23:09;;;;;;;15.63;9.88;;;;;;;34.09;36.35;100596.06;10233784;28;20180;-77
2023/09/10 11:28:38;;;;;;;13.10;10.20;;;;;;;34.69;36.43;100583.28;10234292;28;20054;-77
2023/09/10 11:33:41;;;;;;;8.52;7.55;;;;;;;35.01;35.59;100582.09;10233128;28;20062;-77
2023/09/10 11:38:47;;;;;;;14.43;9.23;;;;;;;35.14;35.51;100578.75;10272114;28;20071;-77
2023/09/10 11:43:50;;;;;;;8.90;8.07;;;;;;;35.35;34.68;100579.47;10273016;28;20074;-77
2023/09/10 11:48:53;;;;;;;10.05;7.57;;;;;;;34.69;35.22;100571.28;10235976;28;20058;-77
2023/09/10 11:53:57;;;;;;;14.13;10.40;;;;;;;35.55;35.35;100577.75;10242558;28;20070;-77
2023/09/10 11:59:01;;;;;;;11.95;8.25;;;;;;;34.83;34.41;100573.22;10257542;28;20051;-77
2023/09/10 12:04:04;;;;;;;13.07;8.77;;;;;;;35.29;34.84;100575.03;10237052;28;20048;-77
2023/09/10 12:09:09;;;;;;;10.68;7.57;;;;;;;35.79;34.27;100573.13;10242477;28;20091;-77
2023/09/10 12:14:13;;;;;;;10.95;8.50;;;;;;;34.84;35.07;100566.50;10241276;28;20057;-78
2023/09/10 12:19:17;;;;;;;12.05;8.32;;;;;;;34.37;36.62;100555.69;10236937;28;20050;-77
2023/09/10 12:24:21;;;;;;;15.48;9.30;;;;;;;34.22;35.51;100561.25;10248993;28;20051;-77
2023/09/10 12:29:24;;;;;;;12.35;7.57;;;;;;;34.39;36.82;100561.81;10230251;28;20045;-76
2023/09/10 12:34:27;;;;;;;10.98;8.02;;;;;;;35.26;35.07;100547.69;10232101;28;20055;-76
2023/09/10 12:39:33;;;;;;;12.52;7.35;;;;;;;34.83;34.57;100553.69;10245263;28;20130;-78
2023/09/10 12:44:36;;;;;;;14.70;7.57;;;;;;;35.39;35.20;100549.88;10236105;28;20687;-76
2023/09/10 12:49:40;;;;;;;14.40;6.70;;;;;;;35.83;33.54;100543.50;10241542;28;20149;-77
2023/09/10 12:54:44;;;;;;;15.05;7.18;;;;;;;35.97;33.58;100538.09;10234393;28;20054;-78
2023/09/10 12:59:53;;;;;;;14.70;6.75;;;;;;;36.00;31.73;100537.53;10230867;28;20047;-77
2023/09/10 13:04:56;;;;;;;12.32;7.80;;;;;;;36.13;32.39;100536.03;10231595;28;20426;-77
2023/09/10 13:10:00;;;;;;;13.02;7.18;;;;;;;36.25;33.18;100527.25;10231488;28;20051;-76
2023/09/10 13:15:04;;;;;;;14.15;7.38;;;;;;;35.66;33.08;100529.09;10243448;28;20050;-78
2023/09/10 13:20:08;;;;;;;15.27;7.47;;;;;;;35.80;32.64;100526.47;10242119;28;20058;-78
2023/09/10 13:25:12;;;;;;;11.40;6.90;;;;;;;35.87;32.31;100527.78;10253018;28;20051;-77
2023/09/10 13:30:15;;;;;;;9.50;6.43;;;;;;;35.17;33.00;100519.53;10233660;28;20190;-77
2023/09/10 13:35:19;;;;;;;11.57;6.78;;;;;;;35.60;32.98;100522.69;10232263;28;20043;-77
2023/09/10 13:40:25;;;;;;;12.75;6.95;;;;;;;35.89;32.75;100513.53;10228457;28;21275;-77
2023/09/10 13:45:28;;;;;;;13.70;6.55;;;;;;;36.17;31.84;100511.94;10225427;28;20615;-77
2023/09/10 13:50:31;;;;;;;15.18;7.78;;;;;;;36.04;31.48;100505.09;10227004;28;20058;-77
2023/09/10 13:55:35;;;;;;;18.33;7.03;;;;;;;36.05;31.61;100497.53;10229908;28;20058;-77
2023/09/10 14:00:38;;;;;;;17.10;7.32;;;;;;;35.62;31.46;100502.84;10240606;28;20400;-77
2023/09/10 14:05:41;;;;;;;17.75;6.60;;;;;;;35.90;32.27;100495.66;10226071;28;20054;-77
2023/09/10 14:10:45;;;;;;;21.80;7.43;;;;;;;35.84;31.94;100492.06;10226100;28;20047;-77
2023/09/10 14:15:48;;;;;;;18.35;6.95;;;;;;;36.00;33.41;100486.38;10218828;28;20114;-77
2023/09/10 14:20:51;;;;;;;15.82;6.75;;;;;;;35.79;32.88;100480.91;10222999;28;20054;-75
2023/09/10 14:25:55;;;;;;;20.60;7.63;;;;;;;35.01;32.36;100473.25;10233652;28;20109;-77
2023/09/10 14:30:58;;;;;;;14.32;7.10;;;;;;;34.54;34.46;100475.34;10234595;28;20242;-76
2023/09/10 14:36:01;;;;;;;15.43;6.07;;;;;;;35.37;33.26;100479.50;10226508;28;20066;-76
2023/09/10 14:41:05;;;;;;;15.05;6.50;;;;;;;35.72;34.06;100475.66;10219434;28;20061;-77
2023/09/10 14:46:08;;;;;;;15.98;6.90;;;;;;;35.90;34.39;100478.88;10222162;28;20055;-76
2023/09/10 14:51:11;;;;;;;12.13;6.53;;;;;;;35.23;33.46;100472.91;10223632;28;20081;-78
2023/09/10 14:56:16;;;;;;;13.95;6.97;;;;;;;35.27;34.91;100466.47;10220302;28;20054;-76
2023/09/10 15:01:20;;;;;;;15.70;6.47;;;;;;;35.30;34.89;100468.66;10217947;28;20051;-77
2023/09/10 15:06:23;;;;;;;18.98;7.00;;;;;;;35.19;33.90;100460.63;10220628;28;20162;-76
2023/09/10 15:11:27;;;;;;;14.18;5.95;;;;;;;34.24;33.97;100467.88;10217831;28;20051;-76
2023/09/10 15:16:30;;;;;;;19.27;6.57;;;;;;;34.48;36.15;100451.41;10226398;28;20762;-78
2023/09/10 15:21:33;;;;;;;16.17;6.38;;;;;;;34.68;35.22;100458.06;10233556;28;20053;-77
2023/09/10 15:26:37;;;;;;;16.80;6.10;;;;;;;34.77;34.51;100459.13;10223887;28;20058;-77
2023/09/10 15:31:40;;;;;;;12.25;7.22;;;;;;;34.67;34.74;100445.22;10203683;28;20051;-77
2023/09/10 15:36:43;;;;;;;16.58;6.28;;;;;;;34.49;34.29;100452.22;10214441;28;20421;-77
2023/09/10 15:41:48;;;;;;;17.85;6.68;;;;;;;33.94;34.13;100447.25;10229257;28;20055;-77
2023/09/10 15:46:51;;;;;;;20.35;7.65;;;;;;;33.46;35.13;100432.75;10232447;28;21308;-76
2023/09/10 15:51:54;;;;;;;17.83;6.70;;;;;;;33.39;35.79;100436.91;10210428;28;20043;-76
2023/09/10 15:57:00;;;;;;;17.17;7.18;;;;;;;33.05;35.96;100427.06;10231835;28;20051;-77
2023/09/10 16:02:15;;;;;;;22.52;6.40;;;;;;;32.40;36.76;100439.53;10227987;28;20522;-76
2023/09/10 16:07:18;;;;;;;20.45;6.70;;;;;;;32.46;37.40;100418.97;10242491;28;20455;-77
2023/09/10 16:12:22;;;;;;;14.98;7.20;;;;;;;32.29;37.78;100423.88;10229309;28;20066;-76
2023/09/10 16:17:25;;;;;;;23.38;7.05;;;;;;;32.19;38.33;100422.69;10251922;28;20055;-77
2023/09/10 16:22:32;;;;;;;17.88;6.80;;;;;;;32.19;38.71;100425.47;10230354;28;20043;-77
2023/09/10 16:27:37;;;;;;;14.35;6.72;;;;;;;31.79;38.38;100424.06;10230784;28;20055;-76
2023/09/10 16:32:40;;;;;;;20.30;7.53;;;;;;;31.45;38.04;100425.38;10236490;28;20067;-77
2023/09/10 16:37:43;;;;;;;22.17;7.43;;;;;;;31.21;38.80;100425.72;10232176;28;20055;-77
2023/09/10 16:42:47;;;;;;;23.88;7.55;;;;;;;30.99;39.08;100434.00;10246694;28;20066;-77
2023/09/10 16:47:50;;;;;;;20.20;7.82;;;;;;;30.91;40.00;100428.94;10232793;28;20046;-79
2023/09/10 16:52:53;;;;;;;16.90;6.43;;;;;;;30.87;39.82;100427.75;10221917;28;20086;-78
2023/09/10 16:57:58;;;;;;;14.40;6.53;;;;;;;30.59;41.20;100431.53;10218084;28;20055;-78
2023/09/10 17:03:00;;;;;;;21.17;6.45;;;;;;;29.55;44.51;100425.44;10208657;28;20047;-78
2023/09/10 17:08:04;;;;;;;15.05;6.18;;;;;;;28.84;45.41;100424.03;10214445;28;21300;-77
2023/09/10 17:13:11;;;;;;;15.90;6.85;;;;;;;28.46;47.16;100423.47;10215583;28;20050;-78
2023/09/10 17:18:14;;;;;;;15.93;6.63;;;;;;;28.12;47.84;100427.09;10224931;28;20426;-77
2023/09/10 17:23:17;;;;;;;18.15;7.47;;;;;;;27.38;47.91;100432.91;10238547;28;20106;-77
2023/09/10 17:28:21;;;;;;;16.70;7.65;;;;;;;27.30;48.23;100417.53;10233026;28;20055;-76
2023/09/10 17:33:24;;;;;;;17.65;6.25;;;;;;;27.30;48.74;100417.53;10232162;28;20054;-77
2023/09/10 17:38:27;;;;;;;24.25;7.43;;;;;;;27.11;49.68;100424.16;10227658;28;20126;-77
2023/09/10 17:43:33;;;;;;;23.33;7.18;;;;;;;26.90;49.84;100417.22;10227696;28;20070;-77
2023/09/10 17:48:36;;;;;;;19.80;7.25;;;;;;;26.75;50.41;100423.13;10229862;28;20054;-79
2023/09/10 17:53:39;;;;;;;15.90;7.38;;;;;;;26.56;50.92;100418.69;10207509;28;20047;-77
2023/09/10 17:58:44;;;;;;;17.40;7.32;;;;;;;26.41;51.27;100425.41;10229447;28;20138;-78
2023/09/10 18:03:46;;;;;;;15.52;7.43;;;;;;;26.22;51.91;100429.16;10201491;28;20050;-78
2023/09/10 18:08:49;;;;;;;17.77;7.47;;;;;;;26.14;52.13;100423.94;10225460;28;20518;-77
2023/09/10 18:13:54;;;;;;;16.60;7.57;;;;;;;26.04;52.43;100441.00;10222072;28;20046;-77
2023/09/10 18:18:57;;;;;;;23.27;8.23;;;;;;;25.95;52.55;100432.19;10251979;28;20078;-77
2023/09/10 18:24:00;;;;;;;17.35;7.38;;;;;;;25.75;53.19;100440.56;10255170;28;20050;-79
2023/09/10 18:29:05;;;;;;;15.85;7.55;;;;;;;25.48;53.32;100450.91;10225888;28;20142;-79
2023/09/10 18:34:10;;;;;;;15.18;7.75;;;;;;;25.44;53.87;100449.66;10226407;28;20065;-78
2023/09/10 18:39:13;;;;;;;18.42;8.15;;;;;;;25.45;54.01;100464.25;10226291;28;20139;-79
2023/09/10 18:44:17;;;;;;;17.13;7.43;;;;;;;25.41;53.66;100469.34;10224648;28;20697;-79
2023/09/10 18:49:20;;;;;;;15.00;6.57;;;;;;;25.26;54.19;100466.03;10241431;28;20134;-78
2023/09/10 18:54:23;;;;;;;14.13;7.22;;;;;;;25.19;54.62;100472.41;10219031;28;20047;-77
2023/09/10 18:59:28;;;;;;;18.70;7.50;;;;;;;25.07;54.80;100473.34;10230926;28;20446;-77
2023/09/10 19:04:31;;;;;;;18.10;7.40;;;;;;;24.78;55.42;100475.50;10252591;28;20055;-77
2023/09/10 19:09:34;;;;;;;14.88;9.05;;;;;;;24.80;55.75;100470.66;10232434;28;20051;-77
2023/09/10 19:14:38;;;;;;;18.05;8.27;;;;;;;24.74;56.43;100455.03;10222072;28;20550;-77
2023/09/10 19:19:41;;;;;;;17.08;8.70;;;;;;;24.50;57.05;100459.34;10219519;28;20051;-77
2023/09/10 19:24:44;;;;;;;19.48;8.63;;;;;;;24.50;57.01;100465.66;10224993;28;20059;-79
2023/09/10 19:29:48;;;;;;;15.23;9.10;;;;;;;24.49;57.07;100463.97;10235939;28;20048;-78
2023/09/10 19:34:51;;;;;;;20.20;9.65;;;;;;;24.34;57.52;100470.72;10234244;28;20419;-78
2023/09/10 19:39:54;;;;;;;20.35;8.93;;;;;;;23.97;58.41;100482.16;10235230;28;21365;-78
2023/09/10 19:44:59;;;;;;;19.23;9.48;;;;;;;24.00;58.33;100469.91;10234506;28;20058;-77
2023/09/10 19:50:02;;;;;;;23.92;9.82;;;;;;;24.00;58.59;100473.50;10242291;28;20066;-79
2023/09/10 19:55:06;;;;;;;17.40;9.68;;;;;;;23.83;59.20;100478.56;10232237;28;20157;-78
2023/09/10 20:00:14;;;;;;;20.05;9.95;;;;;;;23.85;58.44;100467.34;10235391;28;20055;-79
2023/09/10 20:05:17;;;;;;;23.55;10.13;;;;;;;23.87;58.64;100455.13;10238692;28;20050;-79
2023/09/10 20:10:20;;;;;;;19.13;9.43;;;;;;;23.89;58.64;100454.94;10237183;28;20054;-78
2023/09/10 20:15:25;;;;;;;17.85;9.63;;;;;;;23.82;58.90;100451.31;10235929;28;20138;-78
2023/09/10 20:20:30;;;;;;;18.52;8.25;;;;;;;23.69;58.96;100452.13;10230057;28;20078;-77
2023/09/10 20:25:33;;;;;;;15.43;8.73;;;;;;;23.55;59.57;100450.41;10244379;28;20050;-75
2023/09/10 20:30:38;;;;;;;19.48;8.35;;;;;;;23.29;60.30;100453.97;10276087;28;20055;-76
2023/09/10 20:35:41;;;;;;;16.88;8.10;;;;;;;23.10;61.15;100456.38;10251046;28;20131;-78
2023/09/10 20:40:44;;;;;;;20.60;9.77;;;;;;;23.11;60.99;100446.28;10244768;28;20054;-78
2023/09/10 20:45:49;;;;;;;18.33;9.10;;;;;;;23.18;61.07;100453.50;10241598;28;20591;-78
2023/09/10 20:50:53;;;;;;;15.32;9.10;;;;;;;22.93;61.13;100457.81;10236512;28;20044;-77
2023/09/10 20:55:56;;;;;;;19.42;9.00;;;;;;;22.82;61.47;100450.13;10260809;28;20054;-78
2023/09/10 21:01:01;;;;;;;19.80;9.35;;;;;;;22.69;61.89;100445.47;10265069;28;20635;-77
2023/09/10 21:06:04;;;;;;;20.35;9.23;;;;;;;22.70;61.66;100444.41;10238068;28;20110;-78
2023/09/10 21:11:08;;;;;;;17.65;9.80;;;;;;;22.68;62.26;100447.38;10233159;28;20050;-78
2023/09/10 21:16:13;;;;;;;18.67;10.27;;;;;;;22.66;62.16;100441.22;10250179;28;20050;-77
2023/09/10 21:21:16;;;;;;;19.52;10.88;;;;;;;22.71;62.49;100436.00;10236487;28;20047;-78
2023/09/10 21:26:19;;;;;;;19.83;9.98;;;;;;;22.63;62.62;100432.59;10232543;28;20434;-78
2023/09/10 21:31:23;;;;;;;17.40;10.75;;;;;;;22.51;62.93;100430.41;10242323;28;20981;-79
2023/09/10 21:36:26;;;;;;;19.90;10.85;;;;;;;22.38;63.57;100432.19;10243309;28;20075;-79
2023/09/10 21:41:29;;;;;;;19.10;10.80;;;;;;;22.38;64.07;100433.06;10269776;28;20042;-78
2023/09/10 21:46:34;;;;;;;18.13;11.18;;;;;;;22.38;63.65;100438.53;10268972;28;20054;-79
2023/09/10 21:51:37;;;;;;;19.00;11.07;;;;;;;22.28;64.22;100438.03;10227811;28;20134;-77
2023/09/10 21:56:39;;;;;;;22.75;11.88;;;;;;;22.19;64.72;100431.00;10223655;28;21002;-79
2023/09/10 22:01:44;;;;;;;22.58;11.98;;;;;;;22.07;65.54;100437.03;10238494;28;20067;-77
2023/09/10 22:06:47;;;;;;;16.65;12.02;;;;;;;21.75;66.67;100440.31;10272883;28;20046;-78
2023/09/10 22:11:50;;;;;;;20.65;10.80;;;;;;;21.85;66.32;100435.38;10239538;28;20521;-77
2023/09/10 22:16:54;;;;;;;16.40;11.55;;;;;;;22.00;65.98;100438.88;10228740;28;21173;-78
2023/09/10 22:21:57;;;;;;;20.08;12.10;;;;;;;21.97;65.77;100444.75;10231421;28;20140;-78
2023/09/10 22:27:00;;;;;;;20.50;12.00;;;;;;;21.99;65.36;100439.91;10231093;28;20137;-77
2023/09/10 22:32:05;;;;;;;18.13;11.43;;;;;;;21.91;65.73;100434.56;10232130;28;20051;-78
2023/09/10 22:37:08;;;;;;;23.23;11.75;;;;;;;21.81;65.37;100434.09;10229589;28;20079;-78
2023/09/10 22:42:11;;;;;;;19.83;12.35;;;;;;;21.65;65.79;100424.25;10230365;28;20055;-78
2023/09/10 22:47:15;;;;;;;18.17;12.15;;;;;;;21.65;66.09;100414.16;10225772;28;20054;-77
2023/09/10 22:52:18;;;;;;;23.42;12.95;;;;;;;21.63;66.06;100409.91;10225126;28;20201;-77